Time;durP1;ratioP1;P1;durP2;ratioP2;P2;SDS_P1;SDS_P2;PMS_P1;PMS_P2;Temp;Humidity;BMP_temperature;BMP_pressure;BME280_temperature;BME280_humidity;BME280_pressure;Samples;Min_cycle;Max_cycle;Signal;HPM_P1;HPM_P2
2023/05/01 00:01:12;;;;;;;5.57;3.93;;;;;;;;;;5055637;28;20215;-71
2023/05/01 00:04:16;;;;;;;4.73;3.90;;;;;;;;;;5055631;28;20200;-71
2023/05/01 00:07:20;;;;;;;5.70;3.93;;;;;;;;;;5043580;28;20192;-71
2023/05/01 00:10:24;;;;;;;5.17;3.93;;;;;;;;;;5043450;28;20196;-70
2023/05/01 00:13:29;;;;;;;4.13;3.70;;;;;;;;;;5043716;28;20662;-71
2023/05/01 00:16:34;;;;;;;4.73;3.83;;;;;;;;;;5043087;28;20196;-71
2023/05/01 00:19:39;;;;;;;4.53;4.03;;;;;;;;;;5055310;28;20196;-71
2023/05/01 00:22:43;;;;;;;4.47;3.77;;;;;;;;;;5055512;28;20216;-71
2023/05/01 00:25:48;;;;;;;6.00;4.03;;;;;;;;;;5043195;28;20180;-70
2023/05/01 00:28:53;;;;;;;4.57;3.87;;;;;;;;;;5055738;28;20176;-71
2023/05/01 00:31:57;;;;;;;4.10;3.50;;;;;;;;;;5055185;28;20220;-71
2023/05/01 00:35:01;;;;;;;5.67;3.87;;;;;;;;;;5042859;28;20196;-71
2023/05/01 00:38:06;;;;;;;4.30;3.63;;;;;;;;;;5055228;28;20694;-71
2023/05/01 00:41:09;;;;;;;4.60;3.77;;;;;;;;;;5055130;28;20216;-71
2023/05/01 00:44:13;;;;;;;6.03;3.63;;;;;;;;;;5054876;28;20191;-71
2023/05/01 00:47:18;;;;;;;4.80;3.63;;;;;;;;;;5042857;28;20192;-71
2023/05/01 00:50:22;;;;;;;4.47;4.03;;;;;;;;;;5042747;28;20554;-70
2023/05/01 00:53:28;;;;;;;4.97;4.27;;;;;;;;;;5042759;28;20196;-71
2023/05/01 00:56:31;;;;;;;4.00;3.60;;;;;;;;;;5031126;28;20180;-71
2023/05/01 00:59:36;;;;;;;5.33;3.70;;;;;;;;;;5042626;28;20185;-71
2023/05/01 01:02:39;;;;;;;4.10;3.47;;;;;;;;;;5054457;28;20211;-70
2023/05/01 01:05:51;;;;;;;4.13;3.73;;;;;;;;;;5031065;28;20176;-71
2023/05/01 01:09:24;;;;;;;4.67;3.73;;;;;;;;;;5054456;28;20185;-71
2023/05/01 01:13:09;;;;;;;3.90;3.60;;;;;;;;;;5041441;28;20211;-70
2023/05/01 01:16:29;;;;;;;4.33;3.50;;;;;;;;;;5031308;28;20184;-71
2023/05/01 01:19:45;;;;;;;6.33;4.17;;;;;;;;;;5042070;28;20173;-71
2023/05/01 01:23:04;;;;;;;4.03;3.57;;;;;;;;;;5041835;28;20590;-71
2023/05/01 01:26:44;;;;;;;5.27;4.30;;;;;;;;;;5054373;28;20184;-70
2023/05/01 01:30:19;;;;;;;4.37;3.50;;;;;;;;;;5018844;28;20200;-71
2023/05/01 01:33:51;;;;;;;5.03;3.73;;;;;;;;;;5054161;28;20188;-70
2023/05/01 01:37:31;;;;;;;5.27;3.70;;;;;;;;;;5041856;28;20179;-71
2023/05/01 01:40:48;;;;;;;5.03;3.73;;;;;;;;;;5041845;28;20181;-71
2023/05/01 01:44:00;;;;;;;3.97;3.53;;;;;;;;;;5041439;28;20188;-71
2023/05/01 01:47:09;;;;;;;5.97;4.20;;;;;;;;;;5041797;28;20176;-71
2023/05/01 01:50:15;;;;;;;5.83;4.47;;;;;;;;;;5041836;28;20176;-70
2023/05/01 01:53:21;;;;;;;4.50;4.00;;;;;;;;;;5041681;28;20630;-71
2023/05/01 01:56:28;;;;;;;5.10;4.60;;;;;;;;;;5041351;28;20176;-70
2023/05/01 01:59:33;;;;;;;6.23;4.17;;;;;;;;;;5041753;28;20172;-71
2023/05/01 02:02:40;;;;;;;6.87;4.50;;;;;;;;;;5041153;28;20586;-71
2023/05/01 02:05:45;;;;;;;5.00;4.40;;;;;;;;;;5041545;28;20566;-70
2023/05/01 02:08:50;;;;;;;7.70;4.57;;;;;;;;;;5041399;28;20181;-71
2023/05/01 02:11:57;;;;;;;6.67;4.77;;;;;;;;;;5040950;28;20690;-71
2023/05/01 02:15:02;;;;;;;5.33;4.40;;;;;;;;;;5053266;28;20188;-71
2023/05/01 02:18:07;;;;;;;8.63;4.10;;;;;;;;;;5041205;28;20204;-71
2023/05/01 02:21:12;;;;;;;4.77;4.30;;;;;;;;;;5040863;28;20212;-70
2023/05/01 02:24:18;;;;;;;6.00;4.10;;;;;;;;;;5041168;28;20176;-71
2023/05/01 02:27:26;;;;;;;6.13;5.17;;;;;;;;;;5040901;28;20172;-70
2023/05/01 02:30:31;;;;;;;5.73;4.67;;;;;;;;;;5040993;28;20184;-71
2023/05/01 02:33:37;;;;;;;5.80;4.57;;;;;;;;;;5041094;28;20216;-71
2023/05/01 02:36:41;;;;;;;7.13;4.83;;;;;;;;;;5029465;28;20172;-71
2023/05/01 02:39:45;;;;;;;4.83;4.33;;;;;;;;;;5029431;28;20535;-71
2023/05/01 02:42:51;;;;;;;7.10;4.80;;;;;;;;;;5040677;28;20220;-70
2023/05/01 02:45:58;;;;;;;5.30;4.40;;;;;;;;;;5041211;28;20180;-71
2023/05/01 02:49:05;;;;;;;6.33;4.33;;;;;;;;;;5052884;28;20180;-71
2023/05/01 02:52:11;;;;;;;4.57;4.07;;;;;;;;;;5040807;28;20219;-71
2023/05/01 02:55:16;;;;;;;7.23;4.37;;;;;;;;;;5040441;28;20203;-71
2023/05/01 02:58:20;;;;;;;5.70;4.50;;;;;;;;;;5040464;28;20674;-71
2023/05/01 03:01:27;;;;;;;5.43;4.30;;;;;;;;;;5040688;28;20216;-71
2023/05/01 03:04:31;;;;;;;7.13;4.57;;;;;;;;;;5053047;28;20176;-71
2023/05/01 03:07:35;;;;;;;7.90;4.53;;;;;;;;;;5041036;28;20647;-71
2023/05/01 03:10:43;;;;;;;6.40;4.67;;;;;;;;;;5040612;28;20180;-70
2023/05/01 03:13:47;;;;;;;5.43;4.73;;;;;;;;;;5018151;28;20639;-71
2023/05/01 03:16:51;;;;;;;5.83;4.27;;;;;;;;;;5040358;28;20180;-71
2023/05/01 03:19:56;;;;;;;5.53;4.70;;;;;;;;;;5052628;28;20177;-70
2023/05/01 03:23:00;;;;;;;6.00;4.37;;;;;;;;;;5040288;28;20219;-70
2023/05/01 03:26:06;;;;;;;5.80;5.20;;;;;;;;;;5040420;28;20175;-71
2023/05/01 03:29:12;;;;;;;5.63;4.23;;;;;;;;;;5040594;28;20172;-71
2023/05/01 03:32:17;;;;;;;5.40;4.70;;;;;;;;;;5040192;28;20215;-70
2023/05/01 03:35:22;;;;;;;6.80;4.67;;;;;;;;;;5042925;28;20658;-70
2023/05/01 03:38:27;;;;;;;5.93;4.60;;;;;;;;;;5044338;28;20204;-70
2023/05/01 03:41:46;;;;;;;8.13;5.30;;;;;;;;;;5056113;28;20215;-70
2023/05/01 03:45:13;;;;;;;8.50;5.40;;;;;;;;;;5056057;28;20181;-70
2023/05/01 03:48:18;;;;;;;8.53;4.70;;;;;;;;;;5032696;28;20527;-71
2023/05/01 03:51:22;;;;;;;4.83;4.33;;;;;;;;;;5043547;28;20219;-71
2023/05/01 03:54:27;;;;;;;6.03;4.70;;;;;;;;;;5043452;28;20208;-71
2023/05/01 03:57:36;;;;;;;5.20;4.63;;;;;;;;;;5043478;28;20638;-71
2023/05/01 04:00:40;;;;;;;5.63;4.57;;;;;;;;;;5043424;28;20172;-71
2023/05/01 04:03:45;;;;;;;6.37;4.93;;;;;;;;;;5043573;28;20172;-71
2023/05/01 04:06:49;;;;;;;7.23;4.57;;;;;;;;;;5021045;28;20627;-71
2023/05/01 04:09:53;;;;;;;5.17;4.67;;;;;;;;;;5032263;28;20200;-71
2023/05/01 04:12:57;;;;;;;5.50;4.60;;;;;;;;;;5060334;22;20219;-72
2023/05/01 04:16:02;;;;;;;5.00;4.33;;;;;;;;;;5042592;28;20208;-72
2023/05/01 04:19:06;;;;;;;4.97;4.47;;;;;;;;;;5032050;28;20204;-72
2023/05/01 04:22:13;;;;;;;7.00;5.50;;;;;;;;;;5042925;28;20220;-72
2023/05/01 04:25:17;;;;;;;5.30;4.67;;;;;;;;;;5055055;28;20180;-72
2023/05/01 04:28:23;;;;;;;5.50;4.90;;;;;;;;;;5042964;28;20172;-72
2023/05/01 04:31:27;;;;;;;6.93;5.30;;;;;;;;;;5043078;28;20220;-72
2023/05/01 04:34:31;;;;;;;5.67;4.90;;;;;;;;;;5031664;28;20180;-71
2023/05/01 04:37:36;;;;;;;5.53;4.93;;;;;;;;;;5054468;28;20184;-71
2023/05/01 04:40:41;;;;;;;6.03;4.93;;;;;;;;;;5042890;28;20180;-72
2023/05/01 04:43:45;;;;;;;7.60;4.80;;;;;;;;;;5053789;28;20188;-71
2023/05/01 04:46:50;;;;;;;5.67;4.57;;;;;;;;;;5042264;28;20196;-72
2023/05/01 04:49:55;;;;;;;9.43;5.43;;;;;;;;;;5042571;28;20554;-72
2023/05/01 04:52:58;;;;;;;6.47;5.00;;;;;;;;;;5054814;28;20618;-72
2023/05/01 04:56:03;;;;;;;5.73;5.10;;;;;;;;;;5054752;28;20184;-72
2023/05/01 04:59:08;;;;;;;7.33;5.90;;;;;;;;;;5031346;28;20207;-72
2023/05/01 05:02:13;;;;;;;7.87;4.97;;;;;;;;;;5042382;28;20215;-72
2023/05/01 05:05:17;;;;;;;6.60;5.27;;;;;;;;;;5042161;28;20635;-72
2023/05/01 05:08:21;;;;;;;5.90;5.10;;;;;;;;;;5030999;28;20176;-72
2023/05/01 05:11:33;;;;;;;7.93;5.33;;;;;;;;;;5031839;28;20207;-72
2023/05/01 05:14:48;;;;;;;6.70;4.93;;;;;;;;;;5041791;28;20200;-72
2023/05/01 05:17:54;;;;;;;7.97;6.93;;;;;;;;;;5041817;28;20176;-72
2023/05/01 05:21:02;;;;;;;6.60;4.97;;;;;;;;;;5041962;28;20180;-72
2023/05/01 05:24:06;;;;;;;6.50;5.00;;;;;;;;;;5042312;28;20562;-71
2023/05/01 05:27:11;;;;;;;5.40;4.53;;;;;;;;;;5041799;28;20180;-72
2023/05/01 05:30:15;;;;;;;7.57;5.63;;;;;;;;;;5042262;28;20180;-71
2023/05/01 05:33:21;;;;;;;6.83;5.03;;;;;;;;;;5041632;28;20184;-72
2023/05/01 05:36:26;;;;;;;7.23;5.60;;;;;;;;;;5030174;28;20176;-72
2023/05/01 05:39:30;;;;;;;7.00;5.93;;;;;;;;;;5024152;28;20582;-73
2023/05/01 05:42:35;;;;;;;6.17;4.83;;;;;;;;;;5024048;28;20568;-72
2023/05/01 05:45:42;;;;;;;5.77;4.70;;;;;;;;;;5034822;28;20199;-73
2023/05/01 05:48:46;;;;;;;8.67;5.83;;;;;;;;;;5023477;28;20180;-73
2023/05/01 05:51:50;;;;;;;11.40;6.87;;;;;;;;;;5033792;28;20216;-73
2023/05/01 05:54:55;;;;;;;6.50;5.10;;;;;;;;;;5037231;28;20191;-73
2023/05/01 05:57:59;;;;;;;9.60;5.43;;;;;;;;;;5033974;28;20196;-73
2023/05/01 06:01:05;;;;;;;7.77;5.63;;;;;;;;;;5034400;28;20575;-73
2023/05/01 06:04:13;;;;;;;6.00;4.70;;;;;;;;;;5034475;28;20188;-73
2023/05/01 06:07:21;;;;;;;9.97;5.73;;;;;;;;;;5037155;28;20188;-73
2023/05/01 06:10:25;;;;;;;7.40;5.40;;;;;;;;;;5031661;28;20543;-74
2023/05/01 06:13:29;;;;;;;7.83;5.40;;;;;;;;;;5033109;28;20674;-73
2023/05/01 06:16:34;;;;;;;7.13;5.00;;;;;;;;;;5036465;28;20189;-73
2023/05/01 06:19:38;;;;;;;6.37;4.83;;;;;;;;;;5043395;28;20200;-73
2023/05/01 06:22:46;;;;;;;7.87;5.30;;;;;;;;;;5029810;28;20220;-72
2023/05/01 06:25:58;;;;;;;6.67;5.20;;;;;;;;;;5023033;28;20189;-74
2023/05/01 06:29:02;;;;;;;6.37;5.10;;;;;;;;;;5034298;28;20177;-73
2023/05/01 06:32:07;;;;;;;6.73;4.97;;;;;;;;;;5028730;28;20216;-73
2023/05/01 06:35:12;;;;;;;8.30;5.20;;;;;;;;;;5032332;28;20181;-73
2023/05/01 06:38:17;;;;;;;7.80;5.10;;;;;;;;;;5032320;28;20181;-73
2023/05/01 06:41:21;;;;;;;7.27;5.00;;;;;;;;;;5032443;28;20541;-73
2023/05/01 06:44:25;;;;;;;6.97;5.10;;;;;;;;;;5032857;28;20181;-73
2023/05/01 06:47:29;;;;;;;7.87;4.97;;;;;;;;;;5033090;28;20188;-72
2023/05/01 06:50:34;;;;;;;6.33;4.93;;;;;;;;;;5032161;28;20181;-72
2023/05/01 06:53:39;;;;;;;6.57;4.73;;;;;;;;;;5032235;28;20181;-72
2023/05/01 06:56:43;;;;;;;7.83;5.03;;;;;;;;;;5032006;28;20181;-74
2023/05/01 06:59:47;;;;;;;8.47;5.13;;;;;;;;;;5032208;28;20200;-73
2023/05/01 07:02:51;;;;;;;5.60;4.60;;;;;;;;;;5031834;28;20216;-73
2023/05/01 07:05:55;;;;;;;7.20;4.67;;;;;;;;;;5031829;28;20181;-73
2023/05/01 07:08:59;;;;;;;6.03;4.40;;;;;;;;;;5047471;28;20183;-72
2023/05/01 07:12:04;;;;;;;6.30;5.27;;;;;;;;;;5044091;28;20211;-72
2023/05/01 07:15:08;;;;;;;4.80;4.33;;;;;;;;;;5044120;28;20524;-72
2023/05/01 07:18:12;;;;;;;5.90;4.47;;;;;;;;;;5056458;28;20195;-72
2023/05/01 07:21:16;;;;;;;9.57;4.77;;;;;;;;;;5044048;28;20555;-72
2023/05/01 07:24:20;;;;;;;5.20;4.50;;;;;;;;;;5056552;28;20631;-72
2023/05/01 07:27:24;;;;;;;8.20;4.90;;;;;;;;;;5043921;28;20528;-72
2023/05/01 07:30:29;;;;;;;6.43;4.40;;;;;;;;;;5046553;28;20185;-72
2023/05/01 07:33:33;;;;;;;5.53;4.70;;;;;;;;;;5040088;28;20532;-71
2023/05/01 07:36:38;;;;;;;5.47;4.03;;;;;;;;;;5038334;28;20644;-71
2023/05/01 07:39:42;;;;;;;6.77;5.00;;;;;;;;;;5045243;28;20208;-71
2023/05/01 07:42:46;;;;;;;7.33;4.50;;;;;;;;;;5045353;28;20219;-71
2023/05/01 07:45:59;;;;;;;7.40;5.33;;;;;;;;;;5036831;28;20181;-72
2023/05/01 07:49:03;;;;;;;5.30;4.63;;;;;;;;;;5039001;28;20188;-71
2023/05/01 07:52:07;;;;;;;5.43;4.30;;;;;;;;;;5033616;28;20633;-71
2023/05/01 07:55:11;;;;;;;4.63;4.07;;;;;;;;;;5024413;28;20185;-71
2023/05/01 07:58:16;;;;;;;7.17;4.67;;;;;;;;;;5036281;28;20631;-71
2023/05/01 08:01:20;;;;;;;6.03;4.50;;;;;;;;;;5035014;28;20213;-71
2023/05/01 08:04:26;;;;;;;5.67;4.50;;;;;;;;;;5035881;28;20536;-71
2023/05/01 08:07:30;;;;;;;6.77;4.47;;;;;;;;;;5024154;28;20513;-71
2023/05/01 08:10:35;;;;;;;6.23;4.10;;;;;;;;;;5035944;28;20193;-71
2023/05/01 08:13:39;;;;;;;6.70;4.50;;;;;;;;;;5035654;28;20216;-71
2023/05/01 08:16:43;;;;;;;5.17;3.97;;;;;;;;;;5035904;28;20181;-71
2023/05/01 08:19:48;;;;;;;7.23;4.40;;;;;;;;;;5034888;28;20208;-71
2023/05/01 08:22:52;;;;;;;6.17;4.37;;;;;;;;;;5035689;28;20564;-71
2023/05/01 08:25:56;;;;;;;5.00;4.00;;;;;;;;;;5034811;28;20635;-71
2023/05/01 08:29:01;;;;;;;4.97;4.27;;;;;;;;;;5034609;28;20177;-71
2023/05/01 08:32:05;;;;;;;5.53;4.17;;;;;;;;;;5035307;28;20220;-71
2023/05/01 08:35:09;;;;;;;4.90;4.30;;;;;;;;;;5035274;28;20177;-72
2023/05/01 08:38:13;;;;;;;5.67;4.50;;;;;;;;;;5035208;28;20185;-71
2023/05/01 08:41:20;;;;;;;6.73;4.40;;;;;;;;;;5035221;28;20208;-71
2023/05/01 08:44:25;;;;;;;4.63;4.20;;;;;;;;;;5035636;28;20185;-72
2023/05/01 08:47:30;;;;;;;5.80;4.20;;;;;;;;;;5034126;28;20200;-72
2023/05/01 08:50:37;;;;;;;4.97;4.30;;;;;;;;;;5034837;28;20192;-72
2023/05/01 08:53:43;;;;;;;5.83;4.00;;;;;;;;;;5034841;28;20177;-72
2023/05/01 08:56:50;;;;;;;6.47;4.23;;;;;;;;;;5034838;28;20185;-72
2023/05/01 08:59:57;;;;;;;5.43;4.50;;;;;;;;;;5035215;28;20209;-72
2023/05/01 09:03:03;;;;;;;5.43;4.17;;;;;;;;;;5034089;28;20220;-72
2023/05/01 09:06:08;;;;;;;5.83;4.27;;;;;;;;;;5033848;28;20177;-72
2023/05/01 09:09:12;;;;;;;5.73;3.77;;;;;;;;;;5034070;28;20176;-72
2023/05/01 09:12:26;;;;;;;5.73;4.40;;;;;;;;;;5034453;28;20216;-72
2023/05/01 09:15:31;;;;;;;7.33;4.17;;;;;;;;;;5033923;28;20185;-72
2023/05/01 09:18:35;;;;;;;6.40;4.40;;;;;;;;;;5033749;28;20181;-72
2023/05/01 09:21:40;;;;;;;7.87;4.70;;;;;;;;;;5034264;28;20213;-72
2023/05/01 09:24:44;;;;;;;7.77;4.33;;;;;;;;;;5033701;28;20553;-72
2023/05/01 09:27:49;;;;;;;4.83;4.33;;;;;;;;;;5033639;28;20201;-72
2023/05/01 09:30:53;;;;;;;5.87;4.80;;;;;;;;;;5033837;28;20197;-72
2023/05/01 09:33:59;;;;;;;4.80;4.30;;;;;;;;;;5034250;28;20177;-72
2023/05/01 09:37:03;;;;;;;5.17;4.67;;;;;;;;;;5034300;28;20616;-72
2023/05/01 09:40:13;;;;;;;8.67;5.03;;;;;;;;;;5033349;28;20200;-72
2023/05/01 09:43:25;;;;;;;5.77;4.50;;;;;;;;;;5033049;28;20197;-72
2023/05/01 09:46:40;;;;;;;6.33;4.93;;;;;;;;;;5034096;28;20185;-72
2023/05/01 09:49:47;;;;;;;5.70;4.87;;;;;;;;;;5034349;28;20607;-72
2023/05/01 09:52:51;;;;;;;5.17;4.40;;;;;;;;;;5033662;28;20220;-72
2023/05/01 09:56:00;;;;;;;6.10;4.90;;;;;;;;;;5033750;28;20640;-72
2023/05/01 09:59:18;;;;;;;5.73;4.60;;;;;;;;;;5033536;28;20177;-72
2023/05/01 10:02:29;;;;;;;8.00;4.97;;;;;;;;;;5033775;28;20694;-72
2023/05/01 10:05:43;;;;;;;5.50;5.00;;;;;;;;;;5032679;28;20173;-72
2023/05/01 10:08:48;;;;;;;5.50;4.90;;;;;;;;;;5032507;28;20529;-72
2023/05/01 10:11:56;;;;;;;9.13;4.53;;;;;;;;;;5032433;28;20209;-72
2023/05/01 10:15:00;;;;;;;5.23;4.73;;;;;;;;;;5032300;28;20205;-72
2023/05/01 10:18:06;;;;;;;5.10;4.60;;;;;;;;;;5032961;28;20509;-72
2023/05/01 10:21:15;;;;;;;6.00;4.83;;;;;;;;;;5033040;28;20220;-72
2023/05/01 10:24:19;;;;;;;5.87;5.27;;;;;;;;;;5032361;28;20219;-72
2023/05/01 10:27:25;;;;;;;7.97;5.60;;;;;;;;;;5032230;28;20524;-71
2023/05/01 10:30:30;;;;;;;6.83;5.67;;;;;;;;;;5033590;28;20173;-72
2023/05/01 10:33:34;;;;;;;8.13;6.47;;;;;;;;;;5032587;28;20177;-72
2023/05/01 10:36:46;;;;;;;8.90;6.60;;;;;;;;;;5033206;28;20196;-72
2023/05/01 10:39:50;;;;;;;11.73;6.67;;;;;;;;;;5032656;28;20205;-73
2023/05/01 10:43:14;;;;;;;8.40;6.30;;;;;;;;;;5031748;28;20565;-73
2023/05/01 10:46:18;;;;;;;12.33;6.40;;;;;;;;;;5021309;28;20185;-73
2023/05/01 10:49:22;;;;;;;8.87;6.70;;;;;;;;;;5032280;28;20185;-73
2023/05/01 10:52:27;;;;;;;10.10;7.10;;;;;;;;;;5031945;28;20208;-73
2023/05/01 10:55:35;;;;;;;8.80;6.80;;;;;;;;;;5032222;28;20521;-72
2023/05/01 10:59:03;;;;;;;9.40;6.97;;;;;;;;;;5033323;28;20177;-72
2023/05/01 11:02:20;;;;;;;9.07;7.63;;;;;;;;;;5032415;28;20536;-72
2023/05/01 11:05:59;;;;;;;10.37;7.20;;;;;;;;;;5032723;28;20193;-72
2023/05/01 11:09:41;;;;;;;8.97;7.00;;;;;;;;;;5032913;28;20181;-76
2023/05/01 11:12:49;;;;;;;10.83;7.83;;;;;;;;;;5031820;28;20212;-72
2023/05/01 11:15:53;;;;;;;10.77;7.33;;;;;;;;;;5032567;28;20196;-72
2023/05/01 11:18:57;;;;;;;8.23;7.37;;;;;;;;;;5031857;28;20540;-72
2023/05/01 11:22:11;;;;;;;11.87;7.80;;;;;;;;;;5031803;28;20212;-72
2023/05/01 11:25:21;;;;;;;10.97;7.70;;;;;;;;;;5032035;28;20189;-72
2023/05/01 11:28:25;;;;;;;9.90;7.73;;;;;;;;;;5020924;28;20193;-72
2023/05/01 11:31:28;;;;;;;8.90;7.10;;;;;;;;;;5031795;28;20655;-72
2023/05/01 11:34:36;;;;;;;9.53;8.20;;;;;;;;;;5032779;28;20177;-72
2023/05/01 11:37:43;;;;;;;8.63;7.73;;;;;;;;;;5009397;28;20628;-72
2023/05/01 11:40:54;;;;;;;9.93;7.67;;;;;;;;;;5031719;28;20201;-73
2023/05/01 11:43:58;;;;;;;12.90;7.87;;;;;;;;;;5032679;28;20628;-73
2023/05/01 11:47:02;;;;;;;8.60;7.70;;;;;;;;;;5032620;28;20185;-72
2023/05/01 11:50:07;;;;;;;10.27;8.17;;;;;;;;;;5032395;28;20177;-73
2023/05/01 11:53:19;;;;;;;8.73;7.87;;;;;;;;;;5032589;28;20185;-72
2023/05/01 11:56:23;;;;;;;8.90;8.00;;;;;;;;;;5034396;28;20181;-72
2023/05/01 11:59:29;;;;;;;8.90;8.00;;;;;;;;;;5036107;28;20177;-73
2023/05/01 12:02:33;;;;;;;8.90;7.67;;;;;;;;;;5035598;28;20209;-72
2023/05/01 12:05:42;;;;;;;9.93;7.97;;;;;;;;;;5035585;28;20208;-73
2023/05/01 12:08:49;;;;;;;8.33;7.53;;;;;;;;;;5035633;28;20185;-72
2023/05/01 12:11:56;;;;;;;8.70;7.80;;;;;;;;;;5035478;28;20212;-73
2023/05/01 12:15:02;;;;;;;9.57;8.47;;;;;;;;;;5034618;28;20204;-74
2023/05/01 12:18:07;;;;;;;11.90;10.00;;;;;;;;;;5035772;28;20181;-74
2023/05/01 12:21:16;;;;;;;14.83;10.77;;;;;;;;;;5034694;28;20231;-73
2023/05/01 12:24:20;;;;;;;12.50;8.77;;;;;;;;;;5036100;28;20659;-73
2023/05/01 12:27:24;;;;;;;9.00;7.87;;;;;;;;;;5034452;28;20652;-73
2023/05/01 12:30:30;;;;;;;10.17;7.70;;;;;;;;;;5034446;28;20172;-73
2023/05/01 12:33:34;;;;;;;9.50;8.47;;;;;;;;;;5035141;28;20196;-74
2023/05/01 12:36:39;;;;;;;11.07;9.60;;;;;;;;;;5034555;28;20201;-74
2023/05/01 12:39:43;;;;;;;11.43;7.63;;;;;;;;;;5034996;28;20540;-73
2023/05/01 12:42:56;;;;;;;10.47;7.47;;;;;;;;;;5035156;28;20553;-73
2023/05/01 12:46:01;;;;;;;9.63;7.43;;;;;;;;;;5034146;28;20189;-73
2023/05/01 12:49:05;;;;;;;8.30;7.47;;;;;;;;;;5034272;28;20177;-73
2023/05/01 12:52:09;;;;;;;8.53;7.40;;;;;;;;;;5034017;28;20212;-73
2023/05/01 12:55:12;;;;;;;9.07;8.07;;;;;;;;;;5034977;28;20520;-73
2023/05/01 12:58:17;;;;;;;8.03;7.23;;;;;;;;;;5033829;28;20185;-73
2023/05/01 13:01:26;;;;;;;7.57;6.40;;;;;;;;;;5033888;28;20220;-72
2023/05/01 13:04:31;;;;;;;10.03;7.77;;;;;;;;;;5034655;28;20188;-73
2023/05/01 13:07:39;;;;;;;9.67;8.07;;;;;;;;;;5034674;28;20185;-73
2023/05/01 13:10:43;;;;;;;9.37;8.00;;;;;;;;;;5022377;28;20543;-73
2023/05/01 13:13:48;;;;;;;10.90;8.97;;;;;;;;;;5034528;28;20548;-74
2023/05/01 13:16:54;;;;;;;9.70;8.20;;;;;;;;;;5034547;28;20181;-74
2023/05/01 13:20:03;;;;;;;9.13;8.23;;;;;;;;;;5034943;28;20185;-73
2023/05/01 13:23:11;;;;;;;8.73;7.93;;;;;;;;;;5034205;28;20165;-74
2023/05/01 13:26:16;;;;;;;7.70;6.93;;;;;;;;;;5035019;28;20525;-74
2023/05/01 13:29:22;;;;;;;10.70;8.30;;;;;;;;;;5022169;28;20177;-74
2023/05/01 13:32:26;;;;;;;7.80;7.00;;;;;;;;;;5034084;28;20212;-74
2023/05/01 13:35:31;;;;;;;9.87;8.53;;;;;;;;;;5034038;28;20181;-73
2023/05/01 13:38:52;;;;;;;10.83;8.10;;;;;;;;;;5033329;28;20181;-73
2023/05/01 13:41:57;;;;;;;8.83;7.93;;;;;;;;;;5033092;28;20229;-74
2023/05/01 13:45:04;;;;;;;9.30;8.07;;;;;;;;;;5033280;28;20185;-73
2023/05/01 13:48:09;;;;;;;9.27;8.37;;;;;;;;;;5022214;28;20181;-74
2023/05/01 13:51:18;;;;;;;9.03;8.07;;;;;;;;;;5033679;28;20683;-74
2023/05/01 13:54:23;;;;;;;9.60;8.60;;;;;;;;;;5033539;28;20189;-73
2023/05/01 13:57:30;;;;;;;10.27;9.13;;;;;;;;;;5033531;28;20184;-73
2023/05/01 14:00:38;;;;;;;9.93;8.57;;;;;;;;;;5032702;28;20181;-74
2023/05/01 14:03:43;;;;;;;9.73;8.73;;;;;;;;;;5032820;28;20185;-74
2023/05/01 14:06:47;;;;;;;10.70;9.43;;;;;;;;;;5033619;28;20537;-74
2023/05/01 14:10:01;;;;;;;9.87;8.00;;;;;;;;;;5033626;28;20636;-74
2023/05/01 14:13:05;;;;;;;9.27;8.37;;;;;;;;;;5032365;28;20213;-74
2023/05/01 14:16:14;;;;;;;9.10;8.20;;;;;;;;;;5032687;28;20200;-74
2023/05/01 14:19:21;;;;;;;9.17;7.70;;;;;;;;;;5021480;28;20177;-74
2023/05/01 14:22:33;;;;;;;20.17;15.70;;;;;;;;;;5033382;28;20556;-74
2023/05/01 14:25:37;;;;;;;9.23;8.20;;;;;;;;;;5033408;28;20188;-74
2023/05/01 14:28:46;;;;;;;9.10;8.20;;;;;;;;;;5032397;28;20184;-74
2023/05/01 14:31:51;;;;;;;10.33;9.33;;;;;;;;;;5032990;28;20217;-74
2023/05/01 14:34:55;;;;;;;9.50;8.60;;;;;;;;;;5032127;28;20200;-74
2023/05/01 14:38:07;;;;;;;8.03;7.33;;;;;;;;;;5033287;28;20176;-74
2023/05/01 14:41:13;;;;;;;11.33;8.70;;;;;;;;;;5033044;28;20224;-74
2023/05/01 14:44:19;;;;;;;11.70;8.30;;;;;;;;;;5033205;28;20177;-74
2023/05/01 14:47:23;;;;;;;9.53;8.03;;;;;;;;;;5020936;28;20184;-74
2023/05/01 14:50:27;;;;;;;8.93;8.03;;;;;;;;;;5033308;28;20185;-73
2023/05/01 14:53:32;;;;;;;14.87;8.60;;;;;;;;;;5032032;28;20192;-74
2023/05/01 14:56:36;;;;;;;8.17;7.37;;;;;;;;;;5032072;28;20180;-74
2023/05/01 14:59:40;;;;;;;9.90;8.77;;;;;;;;;;5020950;28;20185;-74
2023/05/01 15:02:44;;;;;;;11.20;7.83;;;;;;;;;;5032512;28;20224;-73
2023/05/01 15:05:48;;;;;;;9.57;8.23;;;;;;;;;;5032752;28;20197;-73
2023/05/01 15:08:52;;;;;;;10.30;9.30;;;;;;;;;;5032704;28;20644;-74
2023/05/01 15:11:57;;;;;;;14.87;13.27;;;;;;;;;;5031974;28;20216;-73
2023/05/01 15:15:02;;;;;;;11.13;8.57;;;;;;;;;;5031864;28;20207;-74
2023/05/01 15:18:06;;;;;;;9.00;8.10;;;;;;;;;;5031749;28;20539;-73
2023/05/01 15:21:10;;;;;;;8.23;7.30;;;;;;;;;;5032084;28;20221;-73
2023/05/01 15:24:14;;;;;;;10.43;7.87;;;;;;;;;;5032375;28;20193;-73
2023/05/01 15:27:17;;;;;;;9.23;7.87;;;;;;;;;;5031802;28;20181;-74
2023/05/01 15:30:22;;;;;;;8.67;7.83;;;;;;;;;;5033969;28;20181;-74
2023/05/01 15:33:26;;;;;;;10.77;7.73;;;;;;;;;;5035710;28;20177;-74
2023/05/01 15:36:31;;;;;;;8.87;7.97;;;;;;;;;;5036140;28;20528;-74
2023/05/01 15:39:36;;;;;;;9.40;8.40;;;;;;;;;;5036641;28;20196;-74
2023/05/01 15:42:40;;;;;;;9.30;7.73;;;;;;;;;;5035195;28;20246;-74
2023/05/01 15:45:44;;;;;;;9.47;8.57;;;;;;;;;;5036271;28;20185;-74
2023/05/01 15:48:48;;;;;;;8.97;7.77;;;;;;;;;;5024054;28;20628;-74
2023/05/01 15:51:53;;;;;;;8.43;7.53;;;;;;;;;;5035953;28;20212;-74
2023/05/01 15:54:57;;;;;;;11.60;8.03;;;;;;;;;;5081301;22;20564;-70
2023/05/01 15:58:01;;;;;;;8.77;7.87;;;;;;;;;;5083828;28;20506;-71
2023/05/01 16:01:07;;;;;;;9.50;8.30;;;;;;;;;;5096016;28;20210;-71
2023/05/01 16:04:12;;;;;;;7.10;6.40;;;;;;;;;;5083439;28;20534;-71
2023/05/01 16:07:16;;;;;;;7.67;6.27;;;;;;;;;;5083305;28;20183;-71
2023/05/01 16:10:21;;;;;;;7.57;6.70;;;;;;;;;;5096319;28;20182;-71
2023/05/01 16:13:25;;;;;;;8.13;7.07;;;;;;;;;;5096021;28;20171;-72
2023/05/01 16:16:29;;;;;;;7.90;6.90;;;;;;;;;;5083207;28;20174;-71
2023/05/01 16:19:35;;;;;;;9.33;8.10;;;;;;;;;;5095575;28;20198;-72
2023/05/01 16:22:44;;;;;;;10.40;8.47;;;;;;;;;;5095793;28;20223;-72
2023/05/01 16:25:48;;;;;;;11.53;8.40;;;;;;;;;;5083496;28;20179;-71
2023/05/01 16:28:59;;;;;;;8.80;7.77;;;;;;;;;;5083036;28;20175;-71
2023/05/01 16:32:04;;;;;;;9.10;8.20;;;;;;;;;;5082837;28;20206;-72
2023/05/01 16:35:10;;;;;;;8.97;8.07;;;;;;;;;;5083030;28;20183;-71
2023/05/01 16:38:15;;;;;;;9.23;8.33;;;;;;;;;;5095715;28;20174;-71
2023/05/01 16:41:19;;;;;;;10.13;8.77;;;;;;;;;;5094677;28;20206;-72
2023/05/01 16:44:23;;;;;;;10.63;9.53;;;;;;;;;;5071766;28;20179;-72
2023/05/01 16:47:27;;;;;;;10.10;9.00;;;;;;;;;;5082895;28;20645;-72
2023/05/01 16:50:32;;;;;;;10.23;9.17;;;;;;;;;;5082646;28;20179;-72
2023/05/01 16:53:37;;;;;;;12.43;9.57;;;;;;;;;;5083059;28;20175;-72
2023/05/01 16:56:41;;;;;;;10.07;9.07;;;;;;;;;;5094805;28;20174;-72
2023/05/01 16:59:45;;;;;;;10.77;8.73;;;;;;;;;;5095071;28;20183;-72
2023/05/01 17:02:51;;;;;;;10.53;9.30;;;;;;;;;;5082313;28;20692;-72
2023/05/01 17:05:57;;;;;;;10.20;9.13;;;;;;;;;;5082311;28;20179;-71
2023/05/01 17:09:02;;;;;;;8.87;7.97;;;;;;;;;;5095118;28;20171;-72
2023/05/01 17:12:06;;;;;;;12.60;9.10;;;;;;;;;;5094625;28;20206;-71
2023/05/01 17:15:10;;;;;;;9.70;8.67;;;;;;;;;;5094480;28;20175;-72
2023/05/01 17:18:14;;;;;;;9.50;8.50;;;;;;;;;;5082209;28;20175;-72
2023/05/01 17:21:19;;;;;;;9.40;8.40;;;;;;;;;;5082275;28;20215;-72
2023/05/01 17:24:24;;;;;;;10.20;9.27;;;;;;;;;;5094663;28;20171;-72
2023/05/01 17:27:28;;;;;;;10.20;7.60;;;;;;;;;;5081978;28;20183;-71
2023/05/01 17:30:32;;;;;;;7.60;6.73;;;;;;;;;;5094314;28;20182;-71
2023/05/01 17:33:36;;;;;;;12.93;6.87;;;;;;;;;;5094511;28;20174;-71
2023/05/01 17:36:40;;;;;;;7.77;6.97;;;;;;;;;;5094492;28;20174;-72
2023/05/01 17:39:44;;;;;;;8.70;7.10;;;;;;;;;;5094063;28;20182;-72
2023/05/01 17:42:49;;;;;;;7.30;6.60;;;;;;;;;;5081765;28;20226;-71
2023/05/01 17:45:53;;;;;;;7.00;6.30;;;;;;;;;;5094208;28;20178;-72
2023/05/01 17:48:57;;;;;;;7.00;6.33;;;;;;;;;;5094211;28;20179;-72
2023/05/01 17:52:01;;;;;;;7.63;6.70;;;;;;;;;;5081637;28;20214;-71
2023/05/01 17:55:06;;;;;;;9.87;6.93;;;;;;;;;;5093835;28;20198;-70
2023/05/01 17:58:10;;;;;;;6.60;6.00;;;;;;;;;;5082006;28;20179;-72
2023/05/01 18:01:14;;;;;;;6.93;6.17;;;;;;;;;;5094268;28;20210;-70
2023/05/01 18:04:18;;;;;;;6.93;6.23;;;;;;;;;;5093762;28;20175;-72
2023/05/01 18:07:22;;;;;;;9.67;6.27;;;;;;;;;;5094230;28;20175;-72
2023/05/01 18:10:29;;;;;;;8.93;6.37;;;;;;;;;;5081389;28;20518;-72
2023/05/01 18:13:37;;;;;;;10.73;6.70;;;;;;;;;;5081374;28;20174;-72
2023/05/01 18:16:41;;;;;;;8.17;6.73;;;;;;;;;;5093862;28;20179;-71
2023/05/01 18:19:45;;;;;;;9.40;6.80;;;;;;;;;;5081528;28;20179;-72
2023/05/01 18:22:49;;;;;;;6.97;6.20;;;;;;;;;;5093348;28;20226;-71
2023/05/01 18:25:54;;;;;;;6.90;6.17;;;;;;;;;;5093670;28;20179;-71
2023/05/01 18:28:59;;;;;;;7.90;7.10;;;;;;;;;;5094174;28;20183;-71
2023/05/01 18:32:04;;;;;;;7.33;6.20;;;;;;;;;;5081225;28;20222;-72
2023/05/01 18:35:08;;;;;;;7.17;6.47;;;;;;;;;;5069854;28;20542;-72